createdAt,value
2018-07-07T00:00:38.811Z,18.16
2018-07-07T00:01:38.872Z,18.11
2018-07-07T00:03:31.865Z,18.10
2018-07-07T00:04:31.927Z,18.08
2018-07-07T00:06:24.928Z,18.04
2018-07-07T00:07:24.984Z,17.98
2018-07-07T00:09:17.977Z,17.92
2018-07-07T00:10:18.041Z,17.97
2018-07-07T00:12:11.041Z,17.89
2018-07-07T00:13:11.096Z,17.89
2018-07-07T00:15:04.095Z,17.95
2018-07-07T00:16:04.152Z,17.95
2018-07-07T00:17:57.143Z,17.92
2018-07-07T00:18:57.208Z,17.85
2018-07-07T00:20:50.209Z,17.83
2018-07-07T00:21:50.263Z,17.82
2018-07-07T00:23:43.256Z,17.70
2018-07-07T00:24:43.316Z,17.72
2018-07-07T00:26:36.317Z,17.79
2018-07-07T00:27:36.381Z,17.67
2018-07-07T00:29:29.371Z,17.64
2018-07-07T00:30:29.433Z,17.59
2018-07-07T00:32:22.432Z,17.65
2018-07-07T00:33:22.489Z,17.63
2018-07-07T00:35:15.489Z,17.56
2018-07-07T00:36:15.546Z,17.48
2018-07-07T00:38:08.539Z,17.48
2018-07-07T00:39:08.609Z,17.41
2018-07-07T00:41:01.608Z,17.41
2018-07-07T00:42:01.659Z,17.39
2018-07-07T00:43:54.652Z,17.42
2018-07-07T00:44:54.736Z,17.36
2018-07-07T00:46:47.718Z,17.34
2018-07-07T00:47:47.775Z,17.26
2018-07-07T00:49:40.782Z,17.24
2018-07-07T00:50:40.831Z,17.31
2018-07-07T00:52:33.829Z,17.27
2018-07-07T00:53:33.891Z,17.29
2018-07-07T00:55:26.904Z,17.27
2018-07-07T00:56:26.947Z,17.22
2018-07-07T00:58:19.944Z,17.23
2018-07-07T00:59:20.004Z,17.26
2018-07-07T01:01:13.005Z,17.27
2018-07-07T01:02:13.059Z,17.26
2018-07-07T01:04:06.062Z,17.14
2018-07-07T01:05:06.123Z,17.11
2018-07-07T01:06:59.120Z,17.11
2018-07-07T01:07:59.175Z,17.08
2018-07-07T01:09:52.166Z,17.05
2018-07-07T01:10:52.232Z,16.97
2018-07-07T01:12:45.233Z,16.99
2018-07-07T01:13:45.292Z,16.89
2018-07-07T01:15:38.281Z,16.96
2018-07-07T01:16:38.342Z,16.90
2018-07-07T01:18:31.346Z,16.89
2018-07-07T01:19:31.405Z,16.84
2018-07-07T01:21:24.410Z,16.83
2018-07-07T01:22:24.468Z,16.89
2018-07-07T01:24:17.459Z,16.96
2018-07-07T01:25:17.527Z,17.02
2018-07-07T01:27:10.538Z,16.99
2018-07-07T01:28:10.581Z,17.02
2018-07-07T01:30:03.570Z,17.02
2018-07-07T01:31:03.636Z,17.06
2018-07-07T01:32:56.631Z,17.06
2018-07-07T01:33:56.689Z,17.04
2018-07-07T01:35:49.697Z,17.16
2018-07-07T01:36:49.750Z,17.11
2018-07-07T01:38:42.751Z,17.30
2018-07-07T01:39:42.807Z,17.22
2018-07-07T01:41:35.807Z,17.26
2018-07-07T01:42:35.862Z,17.29
2018-07-07T01:44:28.862Z,17.29
2018-07-07T01:45:28.936Z,17.27
2018-07-07T01:47:21.923Z,17.31
2018-07-07T01:48:21.982Z,17.31
2018-07-07T01:50:14.989Z,17.41
2018-07-07T01:51:15.037Z,17.29
2018-07-07T01:53:08.037Z,17.36
2018-07-07T01:54:08.092Z,17.41
2018-07-07T01:56:01.087Z,17.45
2018-07-07T01:57:01.147Z,17.41
2018-07-07T01:58:54.148Z,17.44
2018-07-07T01:59:54.205Z,17.42
2018-07-07T02:01:47.206Z,17.42
2018-07-07T02:02:47.263Z,17.45
2018-07-07T02:04:40.264Z,17.46
2018-07-07T02:05:40.325Z,17.48
2018-07-07T02:07:33.324Z,17.54
2018-07-07T02:08:33.379Z,17.60
2018-07-07T02:10:26.416Z,17.59
2018-07-07T02:11:26.435Z,17.60
2018-07-07T02:13:19.442Z,17.60
2018-07-07T02:14:19.498Z,17.67
2018-07-07T02:16:12.495Z,17.67
2018-07-07T02:17:12.553Z,17.57
2018-07-07T02:19:05.554Z,17.56
2018-07-07T02:20:05.608Z,17.54
2018-07-07T02:21:58.620Z,17.51
2018-07-07T02:22:58.665Z,17.52
2018-07-07T02:24:51.657Z,17.56
2018-07-07T02:25:51.722Z,17.51
2018-07-07T02:27:44.721Z,17.51
2018-07-07T02:28:44.778Z,17.42
2018-07-07T02:30:37.775Z,17.41
2018-07-07T02:31:37.839Z,17.42
2018-07-07T02:33:30.833Z,17.42
2018-07-07T02:34:30.892Z,17.46
2018-07-07T02:36:25.412Z,17.36
2018-07-07T02:37:25.465Z,17.39
2018-07-07T02:39:18.470Z,17.39
2018-07-07T02:40:18.526Z,17.36
2018-07-07T02:42:11.519Z,17.33
2018-07-07T02:43:11.579Z,17.36
2018-07-07T02:45:04.579Z,17.38
2018-07-07T02:46:04.636Z,17.26
2018-07-07T02:47:57.642Z,17.33
2018-07-07T02:48:57.701Z,17.34
2018-07-07T02:50:50.691Z,17.29
2018-07-07T02:51:50.754Z,17.36
2018-07-07T02:53:43.754Z,17.30
2018-07-07T02:54:43.812Z,17.29
2018-07-07T02:56:36.804Z,17.20
2018-07-07T02:57:36.869Z,17.16
2018-07-07T02:59:29.867Z,17.22
2018-07-07T03:00:29.924Z,17.15
2018-07-07T03:02:22.923Z,16.94
2018-07-07T03:03:23.033Z,16.96
2018-07-07T03:05:15.981Z,16.86
2018-07-07T03:06:16.042Z,16.75
2018-07-07T03:08:09.032Z,16.72
2018-07-07T03:09:09.094Z,16.76
2018-07-07T03:11:02.097Z,16.65
2018-07-07T03:12:02.153Z,16.79
2018-07-07T03:13:55.151Z,16.69
2018-07-07T03:14:55.207Z,16.69
2018-07-07T03:16:48.197Z,16.83
2018-07-07T03:17:48.286Z,16.79
2018-07-07T03:19:41.260Z,16.68
2018-07-07T03:20:41.313Z,16.68
2018-07-07T03:22:34.309Z,16.68
2018-07-07T03:23:34.374Z,16.72
2018-07-07T03:25:27.376Z,16.78
2018-07-07T03:26:27.425Z,16.69
2018-07-07T03:28:20.421Z,16.79
2018-07-07T03:29:20.485Z,16.78
2018-07-07T03:31:13.484Z,16.78
2018-07-07T03:32:13.540Z,16.68
2018-07-07T03:34:06.553Z,16.66
2018-07-07T03:35:06.593Z,16.61
2018-07-07T03:37:00.096Z,16.60
2018-07-07T03:38:00.171Z,16.56
2018-07-07T03:39:53.157Z,16.57
2018-07-07T03:40:53.212Z,16.53
2018-07-07T03:42:46.203Z,16.56
2018-07-07T03:43:46.266Z,16.51
2018-07-07T03:45:39.265Z,16.50
2018-07-07T03:46:39.343Z,16.46
2018-07-07T03:48:32.310Z,16.36
2018-07-07T03:49:32.376Z,16.39
2018-07-07T03:51:25.373Z,16.38
2018-07-07T03:52:25.426Z,16.32
2018-07-07T03:54:18.438Z,16.26
2018-07-07T03:55:18.479Z,16.35
2018-07-07T03:57:11.470Z,16.31
2018-07-07T03:58:11.534Z,16.35
2018-07-07T04:00:04.531Z,16.33
2018-07-07T04:01:04.588Z,16.35
2018-07-07T04:02:57.576Z,16.33
2018-07-07T04:03:57.640Z,16.36
2018-07-07T04:05:50.638Z,16.20
2018-07-07T04:06:50.692Z,16.21
2018-07-07T04:08:43.682Z,16.32
2018-07-07T04:09:43.745Z,16.33
2018-07-07T04:11:36.742Z,16.28
2018-07-07T04:12:36.797Z,16.23
2018-07-07T04:14:29.816Z,16.35
2018-07-07T04:15:29.849Z,16.28
2018-07-07T04:17:22.840Z,16.28
2018-07-07T04:18:22.900Z,16.26
2018-07-07T04:20:15.900Z,16.31
2018-07-07T04:21:15.955Z,16.31
2018-07-07T04:23:08.945Z,16.33
2018-07-07T04:24:09.007Z,16.24
2018-07-07T04:26:02.017Z,16.29
2018-07-07T04:27:02.067Z,16.38
2018-07-07T04:28:55.059Z,16.38
2018-07-07T04:29:55.121Z,16.39
2018-07-07T04:31:48.128Z,16.42
2018-07-07T04:32:48.175Z,16.38
2018-07-07T04:34:41.164Z,16.56
2018-07-07T04:35:41.227Z,16.53
2018-07-07T04:37:34.225Z,16.50
2018-07-07T04:38:34.280Z,16.54
2018-07-07T04:40:27.277Z,16.53
2018-07-07T04:41:27.335Z,16.60
2018-07-07T04:43:20.332Z,16.65
2018-07-07T04:44:20.392Z,16.75
2018-07-07T04:46:13.389Z,16.71
2018-07-07T04:47:13.450Z,16.60
2018-07-07T04:49:06.438Z,16.68
2018-07-07T04:50:06.500Z,16.69
2018-07-07T04:51:59.496Z,16.69
2018-07-07T04:52:59.553Z,16.74
2018-07-07T04:54:52.548Z,16.69
2018-07-07T04:55:52.612Z,16.72
2018-07-07T04:57:45.615Z,16.76
2018-07-07T04:58:45.665Z,16.75
2018-07-07T05:00:38.671Z,16.72
2018-07-07T05:01:38.723Z,16.74
2018-07-07T05:03:31.717Z,16.75
2018-07-07T05:04:31.796Z,16.75
2018-07-07T05:06:24.776Z,16.79
2018-07-07T05:07:24.829Z,16.83
2018-07-07T05:09:17.821Z,16.84
2018-07-07T05:10:17.884Z,16.86
2018-07-07T05:12:10.881Z,16.87
2018-07-07T05:13:10.935Z,16.83
2018-07-07T05:15:03.945Z,17.04
2018-07-07T05:16:04.014Z,17.08
2018-07-07T05:17:57.060Z,17.11
2018-07-07T05:18:57.089Z,17.19
2018-07-07T05:20:50.056Z,17.36
2018-07-07T05:21:50.119Z,17.45
2018-07-07T05:23:43.117Z,17.36
2018-07-07T05:24:43.175Z,17.36
2018-07-07T05:26:36.176Z,17.33
2018-07-07T05:27:36.230Z,17.38
2018-07-07T05:29:29.227Z,17.36
2018-07-07T05:30:29.288Z,17.42
2018-07-07T05:32:22.288Z,17.45
2018-07-07T05:33:22.345Z,17.39
2018-07-07T05:35:15.341Z,17.52
2018-07-07T05:36:15.412Z,17.54
2018-07-07T05:38:08.404Z,17.49
2018-07-07T05:39:08.460Z,17.49
2018-07-07T05:41:01.452Z,17.63
2018-07-07T05:42:01.516Z,17.63
2018-07-07T05:43:54.516Z,17.65
2018-07-07T05:44:54.574Z,17.76
2018-07-07T05:46:47.574Z,17.74
2018-07-07T05:47:47.631Z,17.76
2018-07-07T05:49:40.622Z,17.86
2018-07-07T05:50:40.687Z,17.83
2018-07-07T05:52:33.693Z,17.64
2018-07-07T05:53:33.745Z,17.64
2018-07-07T05:55:26.737Z,17.72
2018-07-07T05:56:26.803Z,17.87
2018-07-07T05:58:19.804Z,17.98
2018-07-07T05:59:19.863Z,18.00
2018-07-07T06:01:12.854Z,17.98
2018-07-07T06:02:12.924Z,18.15
2018-07-07T06:04:05.921Z,18.11
2018-07-07T06:05:05.979Z,18.15
2018-07-07T06:06:58.978Z,18.22
2018-07-07T06:07:59.035Z,18.34
2018-07-07T06:09:52.027Z,18.47
2018-07-07T06:10:52.095Z,18.50
2018-07-07T06:12:45.092Z,18.77
2018-07-07T06:13:45.148Z,18.93
2018-07-07T06:15:38.142Z,19.19
2018-07-07T06:16:38.206Z,19.45
2018-07-07T06:18:31.722Z,20.06
2018-07-07T06:19:31.774Z,20.58
2018-07-07T06:21:24.770Z,21.42
2018-07-07T06:22:24.848Z,22.36
2018-07-07T06:24:17.831Z,24.36
2018-07-07T06:25:17.889Z,25.38
2018-07-07T06:27:10.889Z,26.55
2018-07-07T06:28:10.947Z,27.05
2018-07-07T06:30:03.948Z,27.22
2018-07-07T06:31:04.014Z,27.48
2018-07-07T06:32:57.021Z,26.51
2018-07-07T06:33:57.104Z,27.20
2018-07-07T06:35:50.082Z,28.22
2018-07-07T06:36:50.150Z,28.26
2018-07-07T06:38:43.159Z,28.84
2018-07-07T06:39:43.218Z,29.23
2018-07-07T06:41:36.230Z,28.04
2018-07-07T06:42:36.292Z,28.52
2018-07-07T06:44:29.312Z,29.44
2018-07-07T06:45:29.371Z,28.78
2018-07-07T06:47:22.378Z,29.07
2018-07-07T06:48:22.444Z,29.98
2018-07-07T06:50:15.699Z,30.15
2018-07-07T06:51:15.787Z,30.61
2018-07-07T06:53:08.601Z,31.24
2018-07-07T06:54:08.607Z,31.22
2018-07-07T06:56:01.630Z,31.70
2018-07-07T06:57:01.989Z,31.81
2018-07-07T06:58:54.709Z,32.45
2018-07-07T06:59:54.817Z,32.73
2018-07-07T07:01:47.794Z,32.97
2018-07-07T07:02:47.856Z,32.83
2018-07-07T07:04:40.881Z,33.20
2018-07-07T07:05:40.958Z,33.53
2018-07-07T07:07:33.972Z,33.01
2018-07-07T07:08:34.050Z,33.46
2018-07-07T07:10:27.064Z,33.40
2018-07-07T07:11:27.133Z,33.65
2018-07-07T07:13:20.160Z,34.42
2018-07-07T07:14:20.234Z,34.66
2018-07-07T07:16:13.248Z,34.62
2018-07-07T07:17:13.319Z,34.70
2018-07-07T07:19:06.345Z,34.95
2018-07-07T07:20:06.422Z,35.23
2018-07-07T07:21:59.434Z,35.39
2018-07-07T07:22:59.510Z,34.29
2018-07-07T07:24:52.533Z,34.62
2018-07-07T07:25:52.626Z,35.14
2018-07-07T07:27:45.618Z,34.52
2018-07-07T07:28:45.694Z,34.80
2018-07-07T07:30:38.719Z,35.58
2018-07-07T07:31:38.789Z,35.22
2018-07-07T07:33:31.806Z,35.00
2018-07-07T07:34:31.884Z,35.02
2018-07-07T07:36:24.908Z,35.53
2018-07-07T07:37:24.978Z,36.05
2018-07-07T07:39:18.006Z,36.52
2018-07-07T07:40:18.076Z,36.58
2018-07-07T07:42:11.097Z,36.98
2018-07-07T07:43:11.190Z,37.08
2018-07-07T07:45:04.202Z,36.84
2018-07-07T07:46:04.275Z,36.84
2018-07-07T07:47:57.293Z,36.64
2018-07-07T07:48:57.374Z,36.68
2018-07-07T07:50:50.400Z,36.57
2018-07-07T07:51:50.475Z,36.95
2018-07-07T07:53:43.496Z,38.14
2018-07-07T07:54:43.576Z,38.46
2018-07-07T07:56:36.602Z,38.96
2018-07-07T07:57:36.675Z,38.86
2018-07-07T07:59:29.712Z,38.19
2018-07-07T08:00:29.787Z,38.01
2018-07-07T08:02:22.814Z,38.43
2018-07-07T08:03:22.894Z,38.46
2018-07-07T08:05:15.925Z,38.64
2018-07-07T08:06:15.997Z,38.71
2018-07-07T08:08:09.026Z,38.82
2018-07-07T08:09:09.109Z,39.09
2018-07-07T08:11:02.139Z,38.86
2018-07-07T08:12:02.214Z,38.08
2018-07-07T08:13:55.238Z,38.30
2018-07-07T08:14:55.323Z,37.96
2018-07-07T08:16:48.357Z,37.64
2018-07-07T08:17:48.427Z,37.83
2018-07-07T08:19:41.454Z,37.63
2018-07-07T08:20:41.535Z,37.72
2018-07-07T08:22:34.593Z,37.25
2018-07-07T08:23:34.642Z,37.49
2018-07-07T08:25:27.675Z,37.89
2018-07-07T08:26:27.749Z,37.92
2018-07-07T08:28:20.822Z,37.78
2018-07-07T08:29:20.859Z,38.46
2018-07-07T08:31:13.894Z,37.30
2018-07-07T08:32:13.967Z,37.06
2018-07-07T08:34:06.996Z,36.62
2018-07-07T08:35:07.077Z,34.89
2018-07-07T08:37:00.112Z,33.67
2018-07-07T08:38:00.187Z,34.20
2018-07-07T08:39:53.212Z,35.78
2018-07-07T08:40:53.296Z,36.08
2018-07-07T08:42:46.329Z,36.30
2018-07-07T08:43:46.405Z,36.61
2018-07-07T08:45:39.434Z,36.62
2018-07-07T08:46:39.515Z,36.04
2018-07-07T08:48:32.532Z,36.45
2018-07-07T08:49:32.612Z,36.59
2018-07-07T08:51:25.645Z,35.67
2018-07-07T08:52:25.720Z,34.74
2018-07-07T08:54:18.746Z,33.36
2018-07-07T08:55:18.870Z,34.24
2018-07-07T08:57:11.862Z,35.29
2018-07-07T08:58:11.931Z,35.17
2018-07-07T09:00:04.954Z,35.18
2018-07-07T09:01:05.037Z,35.88
2018-07-07T09:02:58.570Z,36.31
2018-07-07T09:03:58.640Z,36.16
2018-07-07T09:05:51.681Z,36.86
2018-07-07T09:06:51.746Z,37.21
2018-07-07T09:08:44.771Z,37.45
2018-07-07T09:09:44.851Z,37.23
2018-07-07T09:11:37.887Z,37.40
2018-07-07T09:12:37.955Z,36.74
2018-07-07T09:14:30.986Z,36.68
2018-07-07T09:15:31.063Z,36.31
2018-07-07T09:17:24.098Z,36.64
2018-07-07T09:18:24.170Z,36.79
2018-07-07T09:20:17.197Z,36.64
2018-07-07T09:21:17.290Z,36.99
2018-07-07T09:23:10.308Z,37.21
2018-07-07T09:24:10.384Z,37.49
2018-07-07T09:26:03.415Z,37.21
2018-07-07T09:27:03.497Z,37.45
2018-07-07T09:28:56.545Z,37.08
2018-07-07T09:29:56.620Z,37.23
2018-07-07T09:31:49.657Z,36.74
2018-07-07T09:32:49.732Z,36.04
2018-07-07T09:34:42.771Z,35.46
2018-07-07T09:35:42.842Z,35.56
2018-07-07T09:37:35.876Z,35.17
2018-07-07T09:38:35.953Z,34.36
2018-07-07T09:40:28.980Z,32.56
2018-07-07T09:41:29.059Z,32.11
2018-07-07T09:43:22.107Z,31.25
2018-07-07T09:44:22.174Z,30.50
2018-07-07T09:46:15.192Z,29.56
2018-07-07T09:47:15.271Z,29.10
2018-07-07T09:49:08.295Z,29.31
2018-07-07T09:50:08.365Z,29.34
2018-07-07T09:52:01.387Z,29.32
2018-07-07T09:53:01.456Z,29.17
2018-07-07T09:54:54.470Z,29.22
2018-07-07T09:55:54.544Z,29.27
2018-07-07T09:57:47.569Z,28.94
2018-07-07T09:58:47.640Z,28.88
2018-07-07T10:00:40.650Z,28.84
2018-07-07T10:01:40.724Z,28.76
2018-07-07T10:03:34.250Z,28.30
2018-07-07T10:04:34.318Z,28.25
2018-07-07T10:06:27.325Z,27.98
2018-07-07T10:07:27.416Z,27.75
2018-07-07T10:09:20.412Z,27.48
2018-07-07T10:10:20.481Z,27.48
2018-07-07T10:12:13.506Z,27.26
2018-07-07T10:13:13.564Z,27.25
2018-07-07T10:15:06.572Z,27.20
2018-07-07T10:16:06.641Z,27.18
2018-07-07T10:17:59.663Z,27.14
2018-07-07T10:18:59.731Z,27.12
2018-07-07T10:20:52.740Z,27.22
2018-07-07T10:21:52.811Z,27.11
2018-07-07T10:23:45.828Z,26.92
2018-07-07T10:24:45.896Z,26.80
2018-07-07T10:26:38.904Z,26.51
2018-07-07T10:27:38.974Z,26.47
2018-07-07T10:29:31.988Z,26.53
2018-07-07T10:30:32.053Z,26.52
2018-07-07T10:32:25.062Z,26.44
2018-07-07T10:33:25.136Z,26.43
2018-07-07T10:35:18.147Z,26.48
2018-07-07T10:36:18.215Z,26.58
2018-07-07T10:38:11.272Z,26.71
2018-07-07T10:39:11.287Z,26.59
2018-07-07T10:41:04.292Z,26.71
2018-07-07T10:42:04.362Z,26.81
2018-07-07T10:43:57.371Z,26.75
2018-07-07T10:44:57.438Z,26.75
2018-07-07T10:46:50.488Z,26.81
2018-07-07T10:47:50.739Z,26.90
2018-07-07T10:49:43.529Z,26.92
2018-07-07T10:50:43.592Z,26.96
2018-07-07T10:52:36.599Z,26.95
2018-07-07T10:53:36.670Z,26.85
2018-07-07T10:55:29.711Z,26.71
2018-07-07T10:56:29.747Z,26.63
2018-07-07T10:58:22.758Z,26.59
2018-07-07T10:59:22.822Z,26.66
2018-07-07T11:01:15.826Z,26.92
2018-07-07T11:02:15.900Z,27.12
2018-07-07T11:04:08.935Z,27.25
2018-07-07T11:05:08.974Z,27.18
2018-07-07T11:07:01.978Z,27.12
2018-07-07T11:08:02.048Z,27.05
2018-07-07T11:09:55.063Z,27.05
2018-07-07T11:10:55.124Z,26.95
2018-07-07T11:12:48.130Z,26.77
2018-07-07T11:13:48.197Z,26.89
2018-07-07T11:15:41.207Z,26.52
2018-07-07T11:16:41.270Z,26.48
2018-07-07T11:18:34.284Z,26.19
2018-07-07T11:19:34.347Z,26.16
2018-07-07T11:21:27.354Z,26.22
2018-07-07T11:22:27.426Z,26.43
2018-07-07T11:24:20.437Z,26.36
2018-07-07T11:25:20.497Z,26.28
2018-07-07T11:27:13.503Z,26.38
2018-07-07T11:28:13.573Z,26.40
2018-07-07T11:30:06.582Z,26.25
2018-07-07T11:31:06.646Z,26.26
2018-07-07T11:32:59.654Z,26.19
2018-07-07T11:33:59.719Z,26.09
2018-07-07T11:35:52.738Z,26.26
2018-07-07T11:36:52.827Z,26.16
2018-07-07T11:38:45.802Z,26.21
2018-07-07T11:39:45.865Z,26.38
2018-07-07T11:41:38.871Z,26.52
2018-07-07T11:42:38.942Z,26.68
2018-07-07T11:44:31.953Z,26.59
2018-07-07T11:45:32.015Z,26.55
2018-07-07T11:47:25.020Z,26.45
2018-07-07T11:48:25.088Z,26.56
2018-07-07T11:50:18.173Z,26.44
2018-07-07T11:51:18.160Z,26.36
2018-07-07T11:53:11.165Z,26.40
2018-07-07T11:54:11.235Z,26.48
2018-07-07T11:56:04.239Z,26.55
2018-07-07T11:57:04.305Z,26.59
2018-07-07T11:58:57.311Z,26.47
2018-07-07T11:59:57.377Z,26.43
2018-07-07T12:01:50.400Z,26.44
2018-07-07T12:02:50.454Z,26.44
2018-07-07T12:04:43.618Z,26.43
2018-07-07T12:05:43.527Z,26.56
2018-07-07T12:07:37.040Z,26.88
2018-07-07T12:08:37.108Z,26.92
2018-07-07T12:10:30.120Z,26.71
2018-07-07T12:11:30.265Z,26.59
2018-07-07T12:13:23.190Z,26.48
2018-07-07T12:14:23.254Z,26.56
2018-07-07T12:16:16.287Z,26.75
2018-07-07T12:17:16.334Z,26.78
2018-07-07T12:19:09.341Z,26.70
2018-07-07T12:20:09.407Z,26.77
2018-07-07T12:22:02.437Z,26.60
2018-07-07T12:23:02.479Z,26.55
2018-07-07T12:24:55.601Z,26.59
2018-07-07T12:25:55.550Z,26.62
2018-07-07T12:27:48.551Z,26.51
2018-07-07T12:28:48.622Z,26.41
2018-07-07T12:30:41.628Z,26.29
2018-07-07T12:31:41.698Z,26.28
2018-07-07T12:33:34.689Z,26.36
2018-07-07T12:34:34.775Z,26.44
2018-07-07T12:36:27.776Z,26.44
2018-07-07T12:37:27.915Z,26.33
2018-07-07T12:39:20.879Z,26.62
2018-07-07T12:40:20.932Z,26.68
2018-07-07T12:42:13.953Z,26.68
2018-07-07T12:43:13.998Z,26.71
2018-07-07T12:45:07.011Z,26.51
2018-07-07T12:46:07.073Z,26.47
2018-07-07T12:48:00.076Z,26.41
2018-07-07T12:49:00.143Z,26.53
2018-07-07T12:50:53.158Z,26.56
2018-07-07T12:51:53.229Z,26.48
2018-07-07T12:53:46.225Z,26.48
2018-07-07T12:54:46.297Z,26.38
2018-07-07T12:56:39.302Z,26.44
2018-07-07T12:57:39.546Z,26.34
2018-07-07T12:59:32.369Z,26.44
2018-07-07T13:00:32.435Z,26.45
2018-07-07T13:02:25.457Z,26.56
2018-07-07T13:03:25.520Z,26.59
2018-07-07T13:05:18.534Z,26.75
2018-07-07T13:06:18.601Z,26.70
2018-07-07T13:08:11.599Z,26.73
2018-07-07T13:09:11.669Z,26.73
2018-07-07T13:11:04.685Z,26.68
2018-07-07T13:12:04.739Z,26.60
2018-07-07T13:13:57.752Z,26.55
2018-07-07T13:14:57.843Z,26.56
2018-07-07T13:16:50.824Z,26.56
2018-07-07T13:17:50.887Z,26.58
2018-07-07T13:19:43.895Z,26.65
2018-07-07T13:20:43.973Z,26.73
2018-07-07T13:22:36.989Z,26.45
2018-07-07T13:23:37.038Z,26.41
2018-07-07T13:25:30.062Z,26.41
2018-07-07T13:26:30.197Z,26.36
2018-07-07T13:28:23.117Z,26.41
2018-07-07T13:29:23.190Z,26.40
2018-07-07T13:31:16.225Z,26.53
2018-07-07T13:32:16.292Z,26.44
2018-07-07T13:34:09.289Z,26.59
2018-07-07T13:35:09.358Z,26.70
2018-07-07T13:37:02.367Z,26.58
2018-07-07T13:38:02.429Z,26.51
2018-07-07T13:39:55.434Z,26.60
2018-07-07T13:40:55.500Z,26.55
2018-07-07T13:42:49.017Z,26.37
2018-07-07T13:43:49.077Z,26.38
2018-07-07T13:45:42.105Z,26.34
2018-07-07T13:46:42.158Z,26.41
2018-07-07T13:48:35.157Z,26.44
2018-07-07T13:49:35.227Z,26.47
2018-07-07T13:51:28.244Z,26.52
2018-07-07T13:52:28.299Z,26.55
2018-07-07T13:54:21.303Z,26.48
2018-07-07T13:55:21.373Z,26.52
2018-07-07T13:57:14.384Z,26.23
2018-07-07T13:58:14.445Z,26.21
2018-07-07T14:00:07.449Z,26.19
2018-07-07T14:01:07.522Z,26.25
2018-07-07T14:03:00.533Z,26.33
2018-07-07T14:04:00.594Z,26.44
2018-07-07T14:05:53.594Z,26.59
2018-07-07T14:06:53.665Z,26.74
2018-07-07T14:08:46.670Z,26.80
2018-07-07T14:09:46.734Z,26.81
2018-07-07T14:11:39.748Z,26.71
2018-07-07T14:12:39.801Z,26.74
2018-07-07T14:14:32.811Z,26.71
2018-07-07T14:15:32.872Z,26.75
2018-07-07T14:17:25.911Z,26.51
2018-07-07T14:18:25.945Z,26.41
2018-07-07T14:20:18.945Z,26.41
2018-07-07T14:21:19.014Z,26.43
2018-07-07T14:23:12.021Z,26.44
2018-07-07T14:24:12.084Z,26.48
2018-07-07T14:26:05.093Z,26.51
2018-07-07T14:27:05.156Z,26.53
2018-07-07T14:28:58.162Z,26.44
2018-07-07T14:29:58.225Z,26.43
2018-07-07T14:31:51.264Z,26.55
2018-07-07T14:32:51.294Z,26.58
2018-07-07T14:34:44.302Z,26.59
2018-07-07T14:35:44.364Z,26.65
2018-07-07T14:37:37.373Z,26.63
2018-07-07T14:38:37.438Z,26.74
2018-07-07T14:40:30.440Z,26.73
2018-07-07T14:41:30.506Z,26.71
2018-07-07T14:43:24.022Z,26.80
2018-07-07T14:44:24.081Z,26.73
2018-07-07T14:46:17.082Z,26.75
2018-07-07T14:47:17.153Z,26.77
2018-07-07T14:49:10.167Z,26.71
2018-07-07T14:50:10.245Z,26.73
2018-07-07T14:52:03.255Z,26.58
2018-07-07T14:53:03.301Z,26.59
2018-07-07T14:54:56.302Z,26.70
2018-07-07T14:55:56.370Z,26.66
2018-07-07T14:57:49.377Z,26.65
2018-07-07T14:58:49.441Z,26.71
2018-07-07T15:00:42.436Z,26.73
2018-07-07T15:01:42.510Z,26.71
2018-07-07T15:03:35.525Z,26.81
2018-07-07T15:04:35.587Z,26.75
2018-07-07T15:06:28.590Z,26.74
2018-07-07T15:07:28.655Z,26.63
2018-07-07T15:09:21.670Z,26.73
2018-07-07T15:10:21.736Z,26.65
2018-07-07T15:12:14.741Z,26.55
2018-07-07T15:13:14.806Z,26.70
2018-07-07T15:15:07.810Z,26.77
2018-07-07T15:16:07.874Z,26.81
2018-07-07T15:18:00.879Z,26.90
2018-07-07T15:19:00.943Z,26.81
2018-07-07T15:20:53.947Z,26.75
2018-07-07T15:21:54.013Z,26.75
2018-07-07T15:23:47.021Z,26.83
2018-07-07T15:24:47.082Z,26.75
2018-07-07T15:26:40.088Z,26.84
2018-07-07T15:27:40.154Z,26.74
2018-07-07T15:29:33.167Z,26.80
2018-07-07T15:30:33.233Z,26.75
2018-07-07T15:32:26.234Z,26.68
2018-07-07T15:33:26.305Z,26.68
2018-07-07T15:35:19.311Z,26.62
2018-07-07T15:36:19.372Z,26.70
2018-07-07T15:38:12.381Z,26.73
2018-07-07T15:39:12.456Z,26.68
2018-07-07T15:41:05.449Z,26.63
2018-07-07T15:42:05.517Z,26.73
2018-07-07T15:43:58.525Z,26.62
2018-07-07T15:44:58.587Z,26.62
2018-07-07T15:46:51.593Z,26.58
2018-07-07T15:47:51.661Z,26.59
2018-07-07T15:49:44.674Z,26.55
2018-07-07T15:50:44.739Z,26.47
2018-07-07T15:52:37.742Z,26.58
2018-07-07T15:53:37.808Z,26.68
2018-07-07T15:55:30.818Z,26.74
2018-07-07T15:56:30.877Z,26.56
2018-07-07T15:58:23.879Z,26.60
2018-07-07T15:59:23.948Z,26.60
2018-07-07T16:01:16.953Z,26.74
2018-07-07T16:02:17.015Z,26.75
2018-07-07T16:04:10.025Z,26.59
2018-07-07T16:05:10.083Z,26.59
2018-07-07T16:07:03.089Z,26.51
2018-07-07T16:08:03.152Z,26.44
2018-07-07T16:09:56.228Z,26.40
2018-07-07T16:10:56.223Z,26.37
2018-07-07T16:12:49.223Z,26.40
2018-07-07T16:13:49.291Z,26.40
2018-07-07T16:15:42.303Z,26.44
2018-07-07T16:16:42.359Z,26.40
2018-07-07T16:18:35.366Z,26.51
2018-07-07T16:19:35.432Z,26.45
2018-07-07T16:21:28.437Z,26.41
2018-07-07T16:22:28.500Z,26.47
2018-07-07T16:24:21.513Z,26.43
2018-07-07T16:25:21.581Z,26.38
2018-07-07T16:27:14.577Z,26.48
2018-07-07T16:28:14.643Z,26.43
2018-07-07T16:30:07.653Z,26.56
2018-07-07T16:31:07.726Z,26.59
2018-07-07T16:33:00.715Z,26.56
2018-07-07T16:34:00.786Z,26.55
2018-07-07T16:35:53.798Z,26.63
2018-07-07T16:36:53.860Z,26.59
2018-07-07T16:38:46.867Z,26.53
2018-07-07T16:39:47.204Z,26.55
2018-07-07T16:41:39.944Z,26.48
2018-07-07T16:42:40.008Z,26.44
2018-07-07T16:44:33.006Z,26.41
2018-07-07T16:45:33.067Z,26.41
2018-07-07T16:47:26.083Z,26.23
2018-07-07T16:48:26.143Z,26.25
2018-07-07T16:50:19.151Z,26.31
2018-07-07T16:51:19.213Z,26.25
2018-07-07T16:53:12.217Z,26.26
2018-07-07T16:54:12.286Z,26.25
2018-07-07T16:56:05.302Z,26.29
2018-07-07T16:57:05.357Z,26.22
2018-07-07T16:58:58.359Z,26.22
2018-07-07T16:59:58.428Z,26.07
2018-07-07T17:01:51.473Z,26.10
2018-07-07T17:02:51.499Z,26.06
2018-07-07T17:04:44.502Z,25.98
2018-07-07T17:05:44.568Z,25.93
2018-07-07T17:07:37.579Z,26.02
2018-07-07T17:08:37.634Z,26.10
2018-07-07T17:10:30.654Z,26.05
2018-07-07T17:11:30.707Z,26.03
2018-07-07T17:13:23.705Z,26.00
2018-07-07T17:14:23.778Z,25.98
2018-07-07T17:16:16.781Z,25.93
2018-07-07T17:17:16.845Z,25.90
2018-07-07T17:19:09.849Z,25.75
2018-07-07T17:20:09.932Z,25.81
2018-07-07T17:22:02.929Z,25.87
2018-07-07T17:23:02.990Z,25.77
2018-07-07T17:24:55.995Z,25.72
2018-07-07T17:25:56.059Z,25.66
2018-07-07T17:27:49.065Z,25.68
2018-07-07T17:28:49.127Z,25.70
2018-07-07T17:30:42.138Z,25.73
2018-07-07T17:31:42.201Z,25.65
2018-07-07T17:33:35.196Z,25.70
2018-07-07T17:34:35.264Z,25.77
2018-07-07T17:36:28.275Z,25.70
2018-07-07T17:37:28.343Z,25.72
2018-07-07T17:39:21.339Z,25.65
2018-07-07T17:40:21.407Z,25.47
2018-07-07T17:42:14.455Z,25.51
2018-07-07T17:43:14.476Z,25.53
2018-07-07T17:45:07.486Z,25.54
2018-07-07T17:46:07.563Z,25.53
2018-07-07T17:48:00.565Z,25.54
2018-07-07T17:49:00.622Z,25.60
2018-07-07T17:50:53.642Z,25.50
2018-07-07T17:51:53.691Z,25.46
2018-07-07T17:53:46.696Z,25.33
2018-07-07T17:54:46.760Z,25.38
2018-07-07T17:56:39.770Z,25.32
2018-07-07T17:57:39.828Z,25.33
2018-07-07T17:59:32.823Z,25.26
2018-07-07T18:00:32.898Z,25.16
2018-07-07T18:02:25.911Z,25.18
2018-07-07T18:03:25.975Z,25.08
2018-07-07T18:05:18.980Z,25.06
2018-07-07T18:06:19.046Z,25.08
2018-07-07T18:08:12.054Z,24.93
2018-07-07T18:09:12.115Z,24.93
2018-07-07T18:11:05.122Z,24.91
2018-07-07T18:12:05.182Z,24.84
2018-07-07T18:13:58.182Z,24.84
2018-07-07T18:14:58.248Z,24.86
2018-07-07T18:16:51.260Z,24.69
2018-07-07T18:17:51.318Z,24.73
2018-07-07T18:19:44.316Z,24.63
2018-07-07T18:20:44.387Z,24.74
2018-07-07T18:22:37.402Z,24.55
2018-07-07T18:23:37.461Z,24.53
2018-07-07T18:25:30.461Z,24.45
2018-07-07T18:26:30.550Z,24.48
2018-07-07T18:28:23.539Z,24.32
2018-07-07T18:29:23.596Z,24.24
2018-07-07T18:31:16.607Z,24.16
2018-07-07T18:32:16.693Z,24.03
2018-07-07T18:34:09.658Z,24.06